메인 페이지
METAR-TAF:

METAR-TAF

공항 :

베나지르 부토 국제공항

이슬라마바드, 파키스탄

위도: 33-37N, 경도: 073-06E, 고도: 507m

현재 날씨관측

예보는 13분 전, 15:30시(UTC)에 발표되었습니다.
북서4kt
온도 32°C
습도 63%
기압 1001 hPa
시정: 7000m
고도 4000ft 상공 구름 보통

METAR: OPRN 191530Z 31004KT 7000 SCT040 32/24 Q1001 NOSIG RMK A2956

시각: 20:43 (15:43 UTC)

예보

예보는 6 시간 13분 전, 09:30시(UTC)에 발표되었습니다.
예보 대상 시간: 19일 12시부터 20일 18시까지 (UTC)
남동10kt
시정: 6000m
고도 4000ft 상공 구름 보통
고도 10000ft 상공 구름 보통
전환 중
19일 20시부터 19일 22시까지 (UTC)
시정: 4000m
고도 3000ft 상공 구름 조금, 타워링 적운.
고도 4000ft 상공 구름 보통
고도 10000ft 상공 구름 보통
시계 내 뇌우
전환 중
20일 03시부터 20일 06시까지 (UTC)
시정: 6000m
고도 4000ft 상공 구름 보통
고도 10000ft 상공 구름 보통

TAF: OPRN 190930Z 1912/2018 13010KT 6000 SCT040 SCT100 BECMG 1920/1922 4000 VCTS FEW030TCU SCT040 SCT100 BECMG 2003/2006 6000 SCT040 SCT100

4,000개 이상의 공항 관측 자료 및 예보 (METAR 및 TAF 보고).

지도상에서 검색 가능한 기상관측소가 노란 점과 빨간 점으로 표시되어 있습니다.

기상관측소 명을 보려면 표시 위로 마우스를 이동하세요.

날씨 관측과 예보를 보려면 클릭하세요.

지도 변경 : 확대하려면 엑스 표시가 있는 녹색 버튼, 축소하려면 빼기 표시가 있는 녹색 버튼, 다음 페이지의 지도를 보려면 녹색 화살표를 클릭하세요.


METAR-TAF: